^^
Station Historical Data
Daily Summary for July 29, 2017 Units:  Both    English   Metric
« Previous Day
Next Day »
Daily Weekly Monthly Yearly Custom
  High: Low: Average:
Temperature: 72.0 °F /  22.2 °C 44.6 °F /  7 °C 56.1 °F /  13.4 °C
Dew Point: 33.6 °F /  0.9 °C 25.9 °F /  -3.4 °C 29.3 °F /  -1.5 °C
Humidity: 58% 18% 38%
Wind Speed: 8.9mph /  14.3km/h - 0.9mph /  1.4km/h
Wind Gust: 11.0mph /  17.7km/h - -
Wind- - East
Pressure: 30.46 in /  1031.4 hPa 30.33 in /  1027 hPa -
Precipitation: 0.00 in /  0 mm    
Historical Graphs
 
 
Tabular Data for July 29, 2017
Time Temperature Dew Point Pressure Wind Wind Speed Wind Gust Humidity Rainfall Rate (Hourly) solar Conditions
00:04 47.7 °F /  8.7 °C 29.5 °F /  -1.4 °C 30.44in /  1030.7hPa Calm   2.0mph /  3.2km/h 49% 0.00in /  0mm 0.0 W/m2
00:10 47.7 °F /  8.7 °C 28.9 °F /  -1.7 °C 30.44in /  1030.7hPa East 2.9mph /  4.7km/h 3.0mph /  4.8km/h 48% 0.00in /  0mm 0.0 W/m2
00:16 47.7 °F /  8.7 °C 29.5 °F /  -1.4 °C 30.44in /  1030.7hPa Calm   1.0mph /  1.6km/h 49% 0.00in /  0mm 0.0 W/m2
00:23 47.7 °F /  8.7 °C 29.5 °F /  -1.4 °C 30.44in /  1030.7hPa Calm     49% 0.00in /  0mm 0.0 W/m2
00:29 47.7 °F /  8.7 °C 29.5 °F /  -1.4 °C 30.44in /  1030.7hPa Calm   1.0mph /  1.6km/h 49% 0.00in /  0mm 0.0 W/m2
00:35 47.5 °F /  8.6 °C 29.3 °F /  -1.5 °C 30.44in /  1030.7hPa Calm   1.0mph /  1.6km/h 49% 0.00in /  0mm 0.0 W/m2
00:41 47.5 °F /  8.6 °C 29.3 °F /  -1.5 °C 30.44in /  1030.7hPa Calm   1.0mph /  1.6km/h 49% 0.00in /  0mm 0.0 W/m2
00:53 47.1 °F /  8.4 °C 29.5 °F /  -1.4 °C 30.43in /  1030.4hPa Calm   2.0mph /  3.2km/h 50% 0.00in /  0mm 0.0 W/m2
01:00 47.1 °F /  8.4 °C 29.5 °F /  -1.4 °C 30.43in /  1030.4hPa Calm   1.0mph /  1.6km/h 50% 0.00in /  0mm 0.0 W/m2
01:06 46.9 °F /  8.3 °C 29.3 °F /  -1.5 °C 30.43in /  1030.4hPa Calm     50% 0.00in /  0mm 0.0 W/m2
01:12 46.8 °F /  8.2 °C 29.7 °F /  -1.3 °C 30.43in /  1030.4hPa Calm   2.0mph /  3.2km/h 51% 0.00in /  0mm 0.0 W/m2
01:18 46.8 °F /  8.2 °C 29.7 °F /  -1.3 °C 30.43in /  1030.4hPa Calm     51% 0.00in /  0mm 0.0 W/m2
01:24 46.6 °F /  8.1 °C 29.5 °F /  -1.4 °C 30.43in /  1030.4hPa Calm   1.0mph /  1.6km/h 51% 0.00in /  0mm 0.0 W/m2
01:30 46.6 °F /  8.1 °C 29.5 °F /  -1.4 °C 30.42in /  1030hPa Calm     51% 0.00in /  0mm 0.0 W/m2
01:36 46.6 °F /  8.1 °C 29.8 °F /  -1.2 °C 30.42in /  1030hPa Calm   1.0mph /  1.6km/h 52% 0.00in /  0mm 0.0 W/m2
01:42 46.4 °F /  8 °C 29.7 °F /  -1.3 °C 30.42in /  1030hPa Calm     52% 0.00in /  0mm 0.0 W/m2
01:48 46.2 °F /  7.9 °C 29.5 °F /  -1.4 °C 30.42in /  1030hPa Calm   1.0mph /  1.6km/h 52% 0.00in /  0mm 0.0 W/m2
01:54 46.2 °F /  7.9 °C 30.0 °F /  -1.1 °C 30.42in /  1030hPa Calm     53% 0.00in /  0mm 0.0 W/m2
02:00 46.4 °F /  8 °C 30.2 °F /  -1 °C 30.42in /  1030hPa Calm   1.0mph /  1.6km/h 53% 0.00in /  0mm 0.0 W/m2
02:06 46.6 °F /  8.1 °C 30.4 °F /  -0.9 °C 30.43in /  1030.4hPa Calm     53% 0.00in /  0mm 0.0 W/m2
02:12 46.6 °F /  8.1 °C 30.4 °F /  -0.9 °C 30.42in /  1030hPa Calm   1.0mph /  1.6km/h 53% 0.00in /  0mm 0.0 W/m2
02:18 46.6 °F /  8.1 °C 30.4 °F /  -0.9 °C 30.43in /  1030.4hPa Calm     53% 0.00in /  0mm 0.0 W/m2
02:24 46.6 °F /  8.1 °C 30.4 °F /  -0.9 °C 30.43in /  1030.4hPa Calm   1.0mph /  1.6km/h 53% 0.00in /  0mm 0.0 W/m2
02:31 46.6 °F /  8.1 °C 30.4 °F /  -0.9 °C 30.43in /  1030.4hPa Calm     53% 0.00in /  0mm 0.0 W/m2
02:37 47.1 °F /  8.4 °C 30.9 °F /  -0.6 °C 30.43in /  1030.4hPa Calm   4.0mph /  6.4km/h 53% 0.00in /  0mm 0.0 W/m2
02:43 47.5 °F /  8.6 °C 30.7 °F /  -0.7 °C 30.43in /  1030.4hPa Calm   4.0mph /  6.4km/h 52% 0.00in /  0mm 0.0 W/m2
02:49 47.8 °F /  8.8 °C 30.6 °F /  -0.8 °C 30.43in /  1030.4hPa Calm   2.0mph /  3.2km/h 51% 0.00in /  0mm 0.0 W/m2
02:55 48.0 °F /  8.9 °C 30.7 °F /  -0.7 °C 30.43in /  1030.4hPa Calm   2.0mph /  3.2km/h 51% 0.00in /  0mm 0.0 W/m2
03:01 48.0 °F /  8.9 °C 30.7 °F /  -0.7 °C 30.43in /  1030.4hPa Calm   2.0mph /  3.2km/h 51% 0.00in /  0mm 0.0 W/m2
03:07 48.0 °F /  8.9 °C 30.2 °F /  -1 °C 30.43in /  1030.4hPa NNE 2.0mph /  3.2km/h 3.0mph /  4.8km/h 50% 0.00in /  0mm 0.0 W/m2
03:13 48.0 °F /  8.9 °C 30.2 °F /  -1 °C 30.43in /  1030.4hPa Calm   1.0mph /  1.6km/h 50% 0.00in /  0mm 0.0 W/m2
03:20 47.8 °F /  8.8 °C 30.6 °F /  -0.8 °C 30.43in /  1030.4hPa Calm   3.0mph /  4.8km/h 51% 0.00in /  0mm 0.0 W/m2
03:26 47.5 °F /  8.6 °C 30.2 °F /  -1 °C 30.43in /  1030.4hPa NE 4.0mph /  6.4km/h 4.0mph /  6.4km/h 51% 0.00in /  0mm 0.0 W/m2
03:32 47.1 °F /  8.4 °C 30.4 °F /  -0.9 °C 30.43in /  1030.4hPa Calm   1.0mph /  1.6km/h 52% 0.00in /  0mm 0.0 W/m2
03:38 46.9 °F /  8.3 °C 30.2 °F /  -1 °C 30.42in /  1030hPa Calm   1.0mph /  1.6km/h 52% 0.00in /  0mm 0.0 W/m2
03:44 46.8 °F /  8.2 °C 30.6 °F /  -0.8 °C 30.42in /  1030hPa Calm   2.0mph /  3.2km/h 53% 0.00in /  0mm 0.0 W/m2
03:50 46.8 °F /  8.2 °C 30.6 °F /  -0.8 °C 30.42in /  1030hPa Calm   1.0mph /  1.6km/h 53% 0.00in /  0mm 0.0 W/m2
03:56 46.8 °F /  8.2 °C 30.6 °F /  -0.8 °C 30.42in /  1030hPa Calm     53% 0.00in /  0mm 0.0 W/m2
04:03 46.6 °F /  8.1 °C 30.4 °F /  -0.9 °C 30.42in /  1030hPa Calm   1.0mph /  1.6km/h 53% 0.00in /  0mm 0.0 W/m2
04:09 46.6 °F /  8.1 °C 30.4 °F /  -0.9 °C 30.42in /  1030hPa Calm   3.0mph /  4.8km/h 53% 0.00in /  0mm 0.0 W/m2
04:15 46.6 °F /  8.1 °C 30.4 °F /  -0.9 °C 30.42in /  1030hPa Calm   2.0mph /  3.2km/h 53% 0.00in /  0mm 0.0 W/m2
04:21 46.6 °F /  8.1 °C 30.4 °F /  -0.9 °C 30.42in /  1030hPa Calm   4.0mph /  6.4km/h 53% 0.00in /  0mm 0.0 W/m2
04:27 46.6 °F /  8.1 °C 30.4 °F /  -0.9 °C 30.42in /  1030hPa Calm   4.0mph /  6.4km/h 53% 0.00in /  0mm 0.0 W/m2
04:33 46.6 °F /  8.1 °C 30.7 °F /  -0.7 °C 30.42in /  1030hPa Calm   2.0mph /  3.2km/h 54% 0.00in /  0mm 0.0 W/m2
04:39 46.8 °F /  8.2 °C 30.6 °F /  -0.8 °C 30.42in /  1030hPa Calm   4.0mph /  6.4km/h 53% 0.00in /  0mm 0.0 W/m2
04:45 46.8 °F /  8.2 °C 30.6 °F /  -0.8 °C 30.42in /  1030hPa Calm   6.0mph /  9.7km/h 53% 0.00in /  0mm 0.0 W/m2
04:51 46.8 °F /  8.2 °C 30.6 °F /  -0.8 °C 30.42in /  1030hPa NE 4.0mph /  6.4km/h 4.0mph /  6.4km/h 53% 0.00in /  0mm 0.0 W/m2
04:58 46.8 °F /  8.2 °C 30.6 °F /  -0.8 °C 30.43in /  1030.4hPa NE 0.9mph /  1.4km/h 3.0mph /  4.8km/h 53% 0.00in /  0mm 0.0 W/m2
05:04 46.8 °F /  8.2 °C 30.9 °F /  -0.6 °C 30.43in /  1030.4hPa Calm   5.0mph /  8km/h 54% 0.00in /  0mm 0.0 W/m2
05:10 46.8 °F /  8.2 °C 30.9 °F /  -0.6 °C 30.43in /  1030.4hPa Calm   3.0mph /  4.8km/h 54% 0.00in /  0mm 0.0 W/m2
05:16 46.6 °F /  8.1 °C 30.7 °F /  -0.7 °C 30.43in /  1030.4hPa Calm   3.0mph /  4.8km/h 54% 0.00in /  0mm 0.0 W/m2
05:22 46.6 °F /  8.1 °C 30.7 °F /  -0.7 °C 30.43in /  1030.4hPa Calm   2.0mph /  3.2km/h 54% 0.00in /  0mm 0.0 W/m2
05:28 46.2 °F /  7.9 °C 30.9 °F /  -0.6 °C 30.43in /  1030.4hPa Calm   1.0mph /  1.6km/h 55% 0.00in /  0mm 0.0 W/m2
05:34 46.0 °F /  7.8 °C 30.7 °F /  -0.7 °C 30.43in /  1030.4hPa Calm   3.0mph /  4.8km/h 55% 0.00in /  0mm 0.0 W/m2
05:40 46.0 °F /  7.8 °C 30.7 °F /  -0.7 °C 30.43in /  1030.4hPa Calm   4.0mph /  6.4km/h 55% 0.00in /  0mm 0.0 W/m2
05:46 46.0 °F /  7.8 °C 30.7 °F /  -0.7 °C 30.43in /  1030.4hPa NE 0.9mph /  1.4km/h 1.0mph /  1.6km/h 55% 0.00in /  0mm 0.0 W/m2
05:53 46.0 °F /  7.8 °C 30.7 °F /  -0.7 °C 30.43in /  1030.4hPa Calm   1.0mph /  1.6km/h 55% 0.00in /  0mm 0.0 W/m2
05:59 45.9 °F /  7.7 °C 30.6 °F /  -0.8 °C 30.43in /  1030.4hPa Calm   1.0mph /  1.6km/h 55% 0.00in /  0mm 0.0 W/m2
06:05 45.9 °F /  7.7 °C 30.6 °F /  -0.8 °C 30.44in /  1030.7hPa Calm   3.0mph /  4.8km/h 55% 0.00in /  0mm 0.0 W/m2
06:11 45.7 °F /  7.6 °C 30.9 °F /  -0.6 °C 30.44in /  1030.7hPa Calm   3.0mph /  4.8km/h 56% 0.00in /  0mm 0.0 W/m2
06:23 45.1 °F /  7.3 °C 30.4 °F /  -0.9 °C 30.44in /  1030.7hPa Calm   6.0mph /  9.7km/h 56% 0.00in /  0mm 0.0 W/m2
06:35 45.0 °F /  7.2 °C 30.6 °F /  -0.8 °C 30.44in /  1030.7hPa Calm   2.0mph /  3.2km/h 57% 0.00in /  0mm 7.0 W/m2
06:48 44.8 °F /  7.1 °C 30.6 °F /  -0.8 °C 30.44in /  1030.7hPa Calm   3.0mph /  4.8km/h 57% 0.00in /  0mm 12.0 W/m2
06:54 44.8 °F /  7.1 °C 30.9 °F /  -0.6 °C 30.44in /  1030.7hPa Calm   1.0mph /  1.6km/h 58% 0.00in /  0mm 14.0 W/m2
07:00 44.6 °F /  7 °C 30.7 °F /  -0.7 °C 30.44in /  1030.7hPa ESE 4.9mph /  7.9km/h 7.0mph /  11.3km/h 58% 0.00in /  0mm 16.0 W/m2
07:06 44.6 °F /  7 °C 30.7 °F /  -0.7 °C 30.44in /  1030.7hPa East 0.9mph /  1.4km/h 4.0mph /  6.4km/h 58% 0.00in /  0mm 18.0 W/m2
07:12 44.8 °F /  7.1 °C 30.9 °F /  -0.6 °C 30.44in /  1030.7hPa Calm   1.0mph /  1.6km/h 58% 0.00in /  0mm 19.0 W/m2
07:19 45.1 °F /  7.3 °C 31.3 °F /  -0.4 °C 30.44in /  1030.7hPa Calm   5.0mph /  8km/h 58% 0.00in /  0mm 21.0 W/m2
07:25 45.7 °F /  7.6 °C 31.8 °F /  -0.1 °C 30.44in /  1030.7hPa ENE 0.9mph /  1.4km/h 1.0mph /  1.6km/h 58% 0.00in /  0mm 21.0 W/m2
07:31 46.0 °F /  7.8 °C 31.6 °F /  -0.2 °C 30.44in /  1030.7hPa Calm   3.0mph /  4.8km/h 57% 0.00in /  0mm 23.0 W/m2
07:37 46.8 °F /  8.2 °C 31.8 °F /  -0.1 °C 30.44in /  1030.7hPa Calm   5.0mph /  8km/h 56% 0.00in /  0mm 25.0 W/m2
07:43 47.3 °F /  8.5 °C 32.0 °F /  0 °C 30.44in /  1030.7hPa Calm   1.0mph /  1.6km/h 55% 0.00in /  0mm 26.0 W/m2
07:49 48.0 °F /  8.9 °C 32.2 °F /  0.1 °C 30.44in /  1030.7hPa Calm   4.0mph /  6.4km/h 54% 0.00in /  0mm 26.0 W/m2
07:55 48.7 °F /  9.3 °C 32.4 °F /  0.2 °C 30.44in /  1030.7hPa East 2.0mph /  3.2km/h 5.0mph /  8km/h 53% 0.00in /  0mm 28.0 W/m2
08:02 49.5 °F /  9.7 °C 32.5 °F /  0.3 °C 30.44in /  1030.7hPa Calm   1.0mph /  1.6km/h 52% 0.00in /  0mm 28.0 W/m2
08:08 50.4 °F /  10.2 °C 32.4 °F /  0.2 °C 30.44in /  1030.7hPa Calm   6.0mph /  9.7km/h 50% 0.00in /  0mm 30.0 W/m2
08:14 51.1 °F /  10.6 °C 32.5 °F /  0.3 °C 30.45in /  1031hPa NE 2.0mph /  3.2km/h 6.0mph /  9.7km/h 49% 0.00in /  0mm 32.0 W/m2
08:20 52.2 °F /  11.2 °C 33.1 °F /  0.6 °C 30.44in /  1030.7hPa Calm   4.0mph /  6.4km/h 48% 0.00in /  0mm 352.0 W/m2
08:26 53.4 °F /  11.9 °C 33.1 °F /  0.6 °C 30.45in /  1031hPa NE 2.0mph /  3.2km/h 6.0mph /  9.7km/h 46% 0.00in /  0mm 381.0 W/m2
08:32 55.0 °F /  12.8 °C 33.4 °F /  0.8 °C 30.45in /  1031hPa Calm   6.0mph /  9.7km/h 44% 0.00in /  0mm 403.0 W/m2
08:38 56.1 °F /  13.4 °C 33.3 °F /  0.7 °C 30.45in /  1031hPa Calm   5.0mph /  8km/h 42% 0.00in /  0mm 422.0 W/m2
08:44 57.0 °F /  13.9 °C 33.6 °F /  0.9 °C 30.45in /  1031hPa Calm   6.0mph /  9.7km/h 41% 0.00in /  0mm 438.0 W/m2
08:50 57.7 °F /  14.3 °C 33.6 °F /  0.9 °C 30.45in /  1031hPa East 2.0mph /  3.2km/h 5.0mph /  8km/h 40% 0.00in /  0mm 459.0 W/m2
08:56 58.5 °F /  14.7 °C 33.6 °F /  0.9 °C 30.45in /  1031hPa ESE 2.9mph /  4.7km/h 5.0mph /  8km/h 39% 0.00in /  0mm 478.0 W/m2
09:02 59.2 °F /  15.1 °C 33.6 °F /  0.9 °C 30.46in /  1031.4hPa Calm   4.0mph /  6.4km/h 38% 0.00in /  0mm 494.0 W/m2
09:09 59.5 °F /  15.3 °C 33.3 °F /  0.7 °C 30.46in /  1031.4hPa NE 2.9mph /  4.7km/h 11.0mph /  17.7km/h 37% 0.00in /  0mm 513.0 W/m2
09:21 60.1 °F /  15.6 °C 33.1 °F /  0.6 °C 30.46in /  1031.4hPa NNE 0.9mph /  1.4km/h 8.0mph /  12.9km/h 36% 0.00in /  0mm 547.0 W/m2
09:27 60.4 °F /  15.8 °C 33.4 °F /  0.8 °C 30.45in /  1031hPa NE 6.9mph /  11.1km/h 8.0mph /  12.9km/h 36% 0.00in /  0mm 564.0 W/m2
09:33 61.0 °F /  16.1 °C 33.1 °F /  0.6 °C 30.45in /  1031hPa Calm   8.0mph /  12.9km/h 35% 0.00in /  0mm 578.0 W/m2
09:39 61.2 °F /  16.2 °C 32.5 °F /  0.3 °C 30.45in /  1031hPa Calm   8.0mph /  12.9km/h 34% 0.00in /  0mm 592.0 W/m2
09:51 62.1 °F /  16.7 °C 32.5 °F /  0.3 °C 30.45in /  1031hPa East 0.9mph /  1.4km/h 8.0mph /  12.9km/h 33% 0.00in /  0mm 619.0 W/m2
09:58 62.2 °F /  16.8 °C 32.7 °F /  0.4 °C 30.45in /  1031hPa NNE 2.9mph /  4.7km/h 6.0mph /  9.7km/h 33% 0.00in /  0mm 633.0 W/m2
10:04 63.0 °F /  17.2 °C 33.4 °F /  0.8 °C 30.45in /  1031hPa ENE 2.0mph /  3.2km/h 5.0mph /  8km/h 33% 0.00in /  0mm 643.0 W/m2
10:10 63.3 °F /  17.4 °C 32.9 °F /  0.5 °C 30.45in /  1031hPa NNE 2.9mph /  4.7km/h 6.0mph /  9.7km/h 32% 0.00in /  0mm 656.0 W/m2
10:16 63.7 °F /  17.6 °C 32.5 °F /  0.3 °C 30.45in /  1031hPa ENE 4.0mph /  6.4km/h 8.0mph /  12.9km/h 31% 0.00in /  0mm 668.0 W/m2
10:22 64.0 °F /  17.8 °C 32.7 °F /  0.4 °C 30.44in /  1030.7hPa Calm   3.0mph /  4.8km/h 31% 0.00in /  0mm 680.0 W/m2
10:28 64.2 °F /  17.9 °C 32.2 °F /  0.1 °C 30.44in /  1030.7hPa Calm   5.0mph /  8km/h 30% 0.00in /  0mm 689.0 W/m2
10:34 64.2 °F /  17.9 °C 32.2 °F /  0.1 °C 30.44in /  1030.7hPa NNE 2.9mph /  4.7km/h 3.0mph /  4.8km/h 30% 0.00in /  0mm 694.0 W/m2
10:40 64.6 °F /  18.1 °C 32.4 °F /  0.2 °C 30.44in /  1030.7hPa ENE 2.9mph /  4.7km/h 9.0mph /  14.5km/h 30% 0.00in /  0mm 705.0 W/m2
10:46 64.8 °F /  18.2 °C 33.4 °F /  0.8 °C 30.44in /  1030.7hPa Calm   4.0mph /  6.4km/h 31% 0.00in /  0mm 710.0 W/m2
10:53 64.9 °F /  18.3 °C 32.0 °F /  0 °C 30.44in /  1030.7hPa Calm   10.0mph /  16.1km/h 29% 0.00in /  0mm 719.0 W/m2
10:59 65.5 °F /  18.6 °C 32.4 °F /  0.2 °C 30.44in /  1030.7hPa Calm   10.0mph /  16.1km/h 29% 0.00in /  0mm 724.0 W/m2
11:05 65.5 °F /  18.6 °C 31.5 °F /  -0.3 °C 30.44in /  1030.7hPa Calm   8.0mph /  12.9km/h 28% 0.00in /  0mm 731.0 W/m2
11:11 65.7 °F /  18.7 °C 31.6 °F /  -0.2 °C 30.43in /  1030.4hPa ESE 0.9mph /  1.4km/h 7.0mph /  11.3km/h 28% 0.00in /  0mm 735.0 W/m2
11:17 66.0 °F /  18.9 °C 32.0 °F /  0 °C 30.43in /  1030.4hPa NE 6.0mph /  9.7km/h 7.0mph /  11.3km/h 28% 0.00in /  0mm 742.0 W/m2
11:23 66.6 °F /  19.2 °C 31.5 °F /  -0.3 °C 30.43in /  1030.4hPa East 2.0mph /  3.2km/h 8.0mph /  12.9km/h 27% 0.00in /  0mm 747.0 W/m2
11:29 66.6 °F /  19.2 °C 30.6 °F /  -0.8 °C 30.42in /  1030hPa ENE 0.9mph /  1.4km/h 8.0mph /  12.9km/h 26% 0.00in /  0mm 749.0 W/m2
11:35 66.6 °F /  19.2 °C 31.5 °F /  -0.3 °C 30.42in /  1030hPa ESE 4.0mph /  6.4km/h 7.0mph /  11.3km/h 27% 0.00in /  0mm 749.0 W/m2
11:41 66.7 °F /  19.3 °C 31.6 °F /  -0.2 °C 30.42in /  1030hPa Calm   5.0mph /  8km/h 27% 0.00in /  0mm 752.0 W/m2
11:48 66.9 °F /  19.4 °C 30.9 °F /  -0.6 °C 30.41in /  1029.7hPa ESE 0.9mph /  1.4km/h 5.0mph /  8km/h 26% 0.00in /  0mm 751.0 W/m2
11:54 67.3 °F /  19.6 °C 31.3 °F /  -0.4 °C 30.41in /  1029.7hPa ENE 0.9mph /  1.4km/h 4.0mph /  6.4km/h 26% 0.00in /  0mm 754.0 W/m2
12:00 67.8 °F /  19.9 °C 31.6 °F /  -0.2 °C 30.41in /  1029.7hPa ENE 6.9mph /  11.1km/h 11.0mph /  17.7km/h 26% 0.00in /  0mm 752.0 W/m2
12:06 68.2 °F /  20.1 °C 32.0 °F /  0 °C 30.40in /  1029.3hPa SE 2.0mph /  3.2km/h 9.0mph /  14.5km/h 26% 0.00in /  0mm 751.0 W/m2
12:12 68.2 °F /  20.1 °C 32.0 °F /  0 °C 30.40in /  1029.3hPa ENE 4.9mph /  7.9km/h 7.0mph /  11.3km/h 26% 0.00in /  0mm 745.0 W/m2
12:18 68.4 °F /  20.2 °C 32.2 °F /  0.1 °C 30.39in /  1029hPa SSE 4.9mph /  7.9km/h 7.0mph /  11.3km/h 26% 0.00in /  0mm 747.0 W/m2
12:24 68.5 °F /  20.3 °C 32.4 °F /  0.2 °C 30.39in /  1029hPa Calm   5.0mph /  8km/h 26% 0.00in /  0mm 745.0 W/m2
12:30 69.1 °F /  20.6 °C 30.7 °F /  -0.7 °C 30.38in /  1028.7hPa NE 4.9mph /  7.9km/h 9.0mph /  14.5km/h 24% 0.00in /  0mm 738.0 W/m2
12:36 69.3 °F /  20.7 °C 30.9 °F /  -0.6 °C 30.38in /  1028.7hPa NNW 4.0mph /  6.4km/h 10.0mph /  16.1km/h 24% 0.00in /  0mm 737.0 W/m2
12:43 69.4 °F /  20.8 °C 30.0 °F /  -1.1 °C 30.38in /  1028.7hPa Calm   4.0mph /  6.4km/h 23% 0.00in /  0mm 728.0 W/m2
12:49 69.4 °F /  20.8 °C 28.9 °F /  -1.7 °C 30.37in /  1028.3hPa Calm   8.0mph /  12.9km/h 22% 0.00in /  0mm 726.0 W/m2
12:55 69.6 °F /  20.9 °C 30.2 °F /  -1 °C 30.37in /  1028.3hPa East 2.9mph /  4.7km/h 5.0mph /  8km/h 23% 0.00in /  0mm 715.0 W/m2
13:01 70.2 °F /  21.2 °C 30.6 °F /  -0.8 °C 30.37in /  1028.3hPa Calm   8.0mph /  12.9km/h 23% 0.00in /  0mm 710.0 W/m2
13:07 70.2 °F /  21.2 °C 29.5 °F /  -1.4 °C 30.36in /  1028hPa ENE 4.0mph /  6.4km/h 6.0mph /  9.7km/h 22% 0.00in /  0mm 703.0 W/m2
13:13 70.3 °F /  21.3 °C 29.7 °F /  -1.3 °C 30.36in /  1028hPa Calm   7.0mph /  11.3km/h 22% 0.00in /  0mm 696.0 W/m2
13:19 70.5 °F /  21.4 °C 28.8 °F /  -1.8 °C 30.36in /  1028hPa Calm   7.0mph /  11.3km/h 21% 0.00in /  0mm 687.0 W/m2
13:25 70.7 °F /  21.5 °C 28.8 °F /  -1.8 °C 30.35in /  1027.7hPa ENE 2.9mph /  4.7km/h 6.0mph /  9.7km/h 21% 0.00in /  0mm 675.0 W/m2
13:32 70.7 °F /  21.5 °C 28.8 °F /  -1.8 °C 30.35in /  1027.7hPa North 0.9mph /  1.4km/h 10.0mph /  16.1km/h 21% 0.00in /  0mm 668.0 W/m2
13:38 70.9 °F /  21.6 °C 28.9 °F /  -1.7 °C 30.35in /  1027.7hPa ENE 6.0mph /  9.7km/h 8.0mph /  12.9km/h 21% 0.00in /  0mm 650.0 W/m2
13:44 70.9 °F /  21.6 °C 28.9 °F /  -1.7 °C 30.35in /  1027.7hPa NNE 4.9mph /  7.9km/h 9.0mph /  14.5km/h 21% 0.00in /  0mm 642.0 W/m2
13:50 70.5 °F /  21.4 °C 28.8 °F /  -1.8 °C 30.34in /  1027.3hPa NE 6.0mph /  9.7km/h 9.0mph /  14.5km/h 21% 0.00in /  0mm 629.0 W/m2
13:56 70.7 °F /  21.5 °C 27.7 °F /  -2.4 °C 30.34in /  1027.3hPa Calm   4.0mph /  6.4km/h 20% 0.00in /  0mm 617.0 W/m2
14:02 71.1 °F /  21.7 °C 29.1 °F /  -1.6 °C 30.34in /  1027.3hPa SSE 4.0mph /  6.4km/h 5.0mph /  8km/h 21% 0.00in /  0mm 603.0 W/m2
14:08 71.2 °F /  21.8 °C 28.0 °F /  -2.2 °C 30.34in /  1027.3hPa NE 2.0mph /  3.2km/h 9.0mph /  14.5km/h 20% 0.00in /  0mm 591.0 W/m2
14:15 71.8 °F /  22.1 °C 28.6 °F /  -1.9 °C 30.33in /  1027hPa ENE 0.9mph /  1.4km/h 9.0mph /  14.5km/h 20% 0.00in /  0mm 575.0 W/m2
14:21 71.8 °F /  22.1 °C 28.6 °F /  -1.9 °C 30.34in /  1027.3hPa ESE 8.9mph /  14.3km/h 9.0mph /  14.5km/h 20% 0.00in /  0mm 559.0 W/m2
14:27 72.0 °F /  22.2 °C 28.8 °F /  -1.8 °C 30.33in /  1027hPa Calm   5.0mph /  8km/h 20% 0.00in /  0mm 541.0 W/m2
14:39 71.4 °F /  21.9 °C 28.2 °F /  -2.1 °C 30.33in /  1027hPa Calm   3.0mph /  4.8km/h 20% 0.00in /  0mm 510.0 W/m2
14:45 71.8 °F /  22.1 °C 27.3 °F /  -2.6 °C 30.33in /  1027hPa Calm   5.0mph /  8km/h 19% 0.00in /  0mm 492.0 W/m2
14:51 71.4 °F /  21.9 °C 27.0 °F /  -2.8 °C 30.33in /  1027hPa North 2.9mph /  4.7km/h 4.0mph /  6.4km/h 19% 0.00in /  0mm 478.0 W/m2
14:57 71.8 °F /  22.1 °C 28.6 °F /  -1.9 °C 30.33in /  1027hPa North 2.0mph /  3.2km/h 4.0mph /  6.4km/h 20% 0.00in /  0mm 457.0 W/m2
15:04 71.8 °F /  22.1 °C 28.6 °F /  -1.9 °C 30.33in /  1027hPa ENE 6.0mph /  9.7km/h 8.0mph /  12.9km/h 20% 0.00in /  0mm 443.0 W/m2
15:10 71.6 °F /  22 °C 25.9 °F /  -3.4 °C 30.33in /  1027hPa NNE 0.9mph /  1.4km/h 6.0mph /  9.7km/h 18% 0.00in /  0mm 424.0 W/m2
15:16 71.8 °F /  22.1 °C 27.3 °F /  -2.6 °C 30.33in /  1027hPa East 0.9mph /  1.4km/h 4.0mph /  6.4km/h 19% 0.00in /  0mm 401.0 W/m2
15:22 71.8 °F /  22.1 °C 28.6 °F /  -1.9 °C 30.33in /  1027hPa South 2.9mph /  4.7km/h 7.0mph /  11.3km/h 20% 0.00in /  0mm 381.0 W/m2
15:28 71.4 °F /  21.9 °C 28.2 °F /  -2.1 °C 30.33in /  1027hPa Calm   7.0mph /  11.3km/h 20% 0.00in /  0mm 362.0 W/m2
15:34 71.2 °F /  21.8 °C 28.0 °F /  -2.2 °C 30.33in /  1027hPa South 0.9mph /  1.4km/h 4.0mph /  6.4km/h 20% 0.00in /  0mm 341.0 W/m2
15:40 70.9 °F /  21.6 °C 27.9 °F /  -2.3 °C 30.33in /  1027hPa NE 8.1mph /  13km/h 8.1mph /  13km/h 20% 0.00in /  0mm 320.0 W/m2
15:47 70.5 °F /  21.4 °C 27.5 °F /  -2.5 °C 30.33in /  1027hPa Calm   7.0mph /  11.3km/h 20% 0.00in /  0mm 49.0 W/m2
15:53 70.3 °F /  21.3 °C 27.3 °F /  -2.6 °C 30.33in /  1027hPa SE 4.0mph /  6.4km/h 5.0mph /  8km/h 20% 0.00in /  0mm 44.0 W/m2
15:59 70.2 °F /  21.2 °C 27.1 °F /  -2.7 °C 30.33in /  1027hPa ESE 2.0mph /  3.2km/h 7.0mph /  11.3km/h 20% 0.00in /  0mm 40.0 W/m2
16:05 69.6 °F /  20.9 °C 26.8 °F /  -2.9 °C 30.33in /  1027hPa East 6.0mph /  9.7km/h 6.0mph /  9.7km/h 20% 0.00in /  0mm 39.0 W/m2
16:11 69.4 °F /  20.8 °C 27.9 °F /  -2.3 °C 30.33in /  1027hPa SE 0.9mph /  1.4km/h 6.0mph /  9.7km/h 21% 0.00in /  0mm 35.0 W/m2
16:17 69.3 °F /  20.7 °C 27.7 °F /  -2.4 °C 30.33in /  1027hPa East 0.9mph /  1.4km/h 2.0mph /  3.2km/h 21% 0.00in /  0mm 33.0 W/m2
16:23 68.9 °F /  20.5 °C 27.3 °F /  -2.6 °C 30.34in /  1027.3hPa East 6.9mph /  11.1km/h 8.0mph /  12.9km/h 21% 0.00in /  0mm 32.0 W/m2
16:29 68.5 °F /  20.3 °C 27.1 °F /  -2.7 °C 30.34in /  1027.3hPa East 2.9mph /  4.7km/h 7.0mph /  11.3km/h 21% 0.00in /  0mm 54.0 W/m2
16:35 68.4 °F /  20.2 °C 27.0 °F /  -2.8 °C 30.34in /  1027.3hPa Calm   3.0mph /  4.8km/h 21% 0.00in /  0mm 32.0 W/m2
16:42 68.0 °F /  20 °C 27.7 °F /  -2.4 °C 30.34in /  1027.3hPa East 2.0mph /  3.2km/h 4.0mph /  6.4km/h 22% 0.00in /  0mm 21.0 W/m2
16:48 67.6 °F /  19.8 °C 27.5 °F /  -2.5 °C 30.34in /  1027.3hPa East 4.0mph /  6.4km/h 4.0mph /  6.4km/h 22% 0.00in /  0mm 26.0 W/m2
16:54 67.3 °F /  19.6 °C 27.1 °F /  -2.7 °C 30.34in /  1027.3hPa Calm   7.0mph /  11.3km/h 22% 0.00in /  0mm 21.0 W/m2
17:00 67.1 °F /  19.5 °C 27.0 °F /  -2.8 °C 30.34in /  1027.3hPa Calm   8.0mph /  12.9km/h 22% 0.00in /  0mm 25.0 W/m2
17:06 66.7 °F /  19.3 °C 26.6 °F /  -3 °C 30.35in /  1027.7hPa ESE 4.0mph /  6.4km/h 4.0mph /  6.4km/h 22% 0.00in /  0mm 14.0 W/m2
17:12 66.4 °F /  19.1 °C 26.4 °F /  -3.1 °C 30.35in /  1027.7hPa Calm   2.0mph /  3.2km/h 22% 0.00in /  0mm 12.0 W/m2
17:18 65.8 °F /  18.8 °C 27.0 °F /  -2.8 °C 30.35in /  1027.7hPa ENE 0.9mph /  1.4km/h 1.0mph /  1.6km/h 23% 0.00in /  0mm 9.0 W/m2
17:24 65.5 °F /  18.6 °C 26.8 °F /  -2.9 °C 30.36in /  1028hPa Calm   1.0mph /  1.6km/h 23% 0.00in /  0mm 5.0 W/m2
17:30 64.9 °F /  18.3 °C 27.3 °F /  -2.6 °C 30.36in /  1028hPa Calm   2.0mph /  3.2km/h 24% 0.00in /  0mm 0.0 W/m2
17:36 64.6 °F /  18.1 °C 27.0 °F /  -2.8 °C 30.36in /  1028hPa Calm   1.0mph /  1.6km/h 24% 0.00in /  0mm 0.0 W/m2
17:43 63.9 °F /  17.7 °C 27.3 °F /  -2.6 °C 30.36in /  1028hPa Calm     25% 0.00in /  0mm 0.0 W/m2
17:49 63.3 °F /  17.4 °C 27.0 °F /  -2.8 °C 30.36in /  1028hPa Calm     25% 0.00in /  0mm 0.0 W/m2
17:55 63.0 °F /  17.2 °C 27.5 °F /  -2.5 °C 30.36in /  1028hPa Calm     26% 0.00in /  0mm 0.0 W/m2
18:01 62.1 °F /  16.7 °C 26.8 °F /  -2.9 °C 30.36in /  1028hPa Calm     26% 0.00in /  0mm 0.0 W/m2
18:07 61.3 °F /  16.3 °C 27.1 °F /  -2.7 °C 30.36in /  1028hPa Calm     27% 0.00in /  0mm 0.0 W/m2
18:13 60.6 °F /  15.9 °C 27.3 °F /  -2.6 °C 30.36in /  1028hPa Calm     28% 0.00in /  0mm 0.0 W/m2
18:19 60.1 °F /  15.6 °C 26.8 °F /  -2.9 °C 30.36in /  1028hPa Calm     28% 0.00in /  0mm 0.0 W/m2
18:25 59.4 °F /  15.2 °C 27.1 °F /  -2.7 °C 30.37in /  1028.3hPa Calm     29% 0.00in /  0mm 0.0 W/m2
18:38 58.1 °F /  14.5 °C 26.1 °F /  -3.3 °C 30.38in /  1028.7hPa Calm     29% 0.00in /  0mm 0.0 W/m2
18:44 57.6 °F /  14.2 °C 26.4 °F /  -3.1 °C 30.38in /  1028.7hPa Calm     30% 0.00in /  0mm 0.0 W/m2
18:50 57.2 °F /  14 °C 26.1 °F /  -3.3 °C 30.38in /  1028.7hPa Calm     30% 0.00in /  0mm 0.0 W/m2
18:56 56.8 °F /  13.8 °C 26.6 °F /  -3 °C 30.38in /  1028.7hPa Calm     31% 0.00in /  0mm 0.0 W/m2
19:02 56.5 °F /  13.6 °C 26.2 °F /  -3.2 °C 30.38in /  1028.7hPa Calm     31% 0.00in /  0mm 0.0 W/m2
19:08 55.9 °F /  13.3 °C 26.4 °F /  -3.1 °C 30.39in /  1029hPa Calm     32% 0.00in /  0mm 0.0 W/m2
19:15 55.6 °F /  13.1 °C 26.2 °F /  -3.2 °C 30.39in /  1029hPa Calm     32% 0.00in /  0mm 0.0 W/m2
19:21 55.2 °F /  12.9 °C 26.6 °F /  -3 °C 30.39in /  1029hPa Calm     33% 0.00in /  0mm 0.0 W/m2
19:27 54.9 °F /  12.7 °C 26.2 °F /  -3.2 °C 30.39in /  1029hPa Calm     33% 0.00in /  0mm 0.0 W/m2
19:33 54.5 °F /  12.5 °C 26.8 °F /  -2.9 °C 30.40in /  1029.3hPa Calm     34% 0.00in /  0mm 0.0 W/m2
19:39 54.1 °F /  12.3 °C 26.4 °F /  -3.1 °C 30.40in /  1029.3hPa Calm     34% 0.00in /  0mm 0.0 W/m2
19:45 53.8 °F /  12.1 °C 26.1 °F /  -3.3 °C 30.40in /  1029.3hPa Calm     34% 0.00in /  0mm 0.0 W/m2
19:52 53.6 °F /  12 °C 26.6 °F /  -3 °C 30.40in /  1029.3hPa Calm     35% 0.00in /  0mm 0.0 W/m2
19:58 53.2 °F /  11.8 °C 26.2 °F /  -3.2 °C 30.41in /  1029.7hPa Calm   1.0mph /  1.6km/h 35% 0.00in /  0mm 0.0 W/m2
20:04 53.1 °F /  11.7 °C 26.8 °F /  -2.9 °C 30.41in /  1029.7hPa Calm     36% 0.00in /  0mm 0.0 W/m2
20:10 52.9 °F /  11.6 °C 26.6 °F /  -3 °C 30.41in /  1029.7hPa Calm     36% 0.00in /  0mm 0.0 W/m2
20:16 52.5 °F /  11.4 °C 26.2 °F /  -3.2 °C 30.41in /  1029.7hPa Calm     36% 0.00in /  0mm 0.0 W/m2
20:22 52.5 °F /  11.4 °C 26.2 °F /  -3.2 °C 30.41in /  1029.7hPa Calm     36% 0.00in /  0mm 0.0 W/m2
20:28 52.3 °F /  11.3 °C 26.8 °F /  -2.9 °C 30.41in /  1029.7hPa Calm   1.0mph /  1.6km/h 37% 0.00in /  0mm 0.0 W/m2
20:35 52.2 °F /  11.2 °C 26.6 °F /  -3 °C 30.41in /  1029.7hPa Calm     37% 0.00in /  0mm 0.0 W/m2
20:41 52.0 °F /  11.1 °C 26.6 °F /  -3 °C 30.41in /  1029.7hPa ENE 2.0mph /  3.2km/h 2.0mph /  3.2km/h 37% 0.00in /  0mm 0.0 W/m2
20:47 51.6 °F /  10.9 °C 26.2 °F /  -3.2 °C 30.41in /  1029.7hPa Calm   2.0mph /  3.2km/h 37% 0.00in /  0mm 0.0 W/m2
20:53 51.4 °F /  10.8 °C 26.6 °F /  -3 °C 30.42in /  1030hPa Calm   1.0mph /  1.6km/h 38% 0.00in /  0mm 0.0 W/m2
20:59 51.1 °F /  10.6 °C 26.4 °F /  -3.1 °C 30.42in /  1030hPa Calm   1.0mph /  1.6km/h 38% 0.00in /  0mm 0.0 W/m2
21:05 50.9 °F /  10.5 °C 26.2 °F /  -3.2 °C 30.42in /  1030hPa East 0.9mph /  1.4km/h 2.0mph /  3.2km/h 38% 0.00in /  0mm 0.0 W/m2
21:11 50.7 °F /  10.4 °C 26.6 °F /  -3 °C 30.42in /  1030hPa Calm     39% 0.00in /  0mm 0.0 W/m2
21:17 50.4 °F /  10.2 °C 26.4 °F /  -3.1 °C 30.42in /  1030hPa Calm     39% 0.00in /  0mm 0.0 W/m2
21:24 50.2 °F /  10.1 °C 26.8 °F /  -2.9 °C 30.42in /  1030hPa Calm     40% 0.00in /  0mm 0.0 W/m2
21:30 49.8 °F /  9.9 °C 26.4 °F /  -3.1 °C 30.42in /  1030hPa Calm     40% 0.00in /  0mm 0.0 W/m2
21:36 49.6 °F /  9.8 °C 26.2 °F /  -3.2 °C 30.42in /  1030hPa Calm     40% 0.00in /  0mm 0.0 W/m2
21:42 49.3 °F /  9.6 °C 26.6 °F /  -3 °C 30.42in /  1030hPa Calm   1.0mph /  1.6km/h 41% 0.00in /  0mm 0.0 W/m2
21:48 49.1 °F /  9.5 °C 26.4 °F /  -3.1 °C 30.42in /  1030hPa Calm     41% 0.00in /  0mm 0.0 W/m2
21:54 48.7 °F /  9.3 °C 26.6 °F /  -3 °C 30.42in /  1030hPa Calm   1.0mph /  1.6km/h 42% 0.00in /  0mm 0.0 W/m2
22:00 48.6 °F /  9.2 °C 26.4 °F /  -3.1 °C 30.42in /  1030hPa Calm     42% 0.00in /  0mm 0.0 W/m2
22:06 48.4 °F /  9.1 °C 26.4 °F /  -3.1 °C 30.43in /  1030.4hPa Calm   1.0mph /  1.6km/h 42% 0.00in /  0mm 0.0 W/m2
22:12 48.2 °F /  9 °C 26.2 °F /  -3.2 °C 30.43in /  1030.4hPa Calm     42% 0.00in /  0mm 0.0 W/m2
22:19 47.8 °F /  8.8 °C 26.4 °F /  -3.1 °C 30.42in /  1030hPa Calm     43% 0.00in /  0mm 0.0 W/m2
22:25 47.7 °F /  8.7 °C 26.2 °F /  -3.2 °C 30.42in /  1030hPa Calm     43% 0.00in /  0mm 0.0 W/m2
22:31 47.5 °F /  8.6 °C 26.6 °F /  -3 °C 30.42in /  1030hPa East 0.9mph /  1.4km/h 1.0mph /  1.6km/h 44% 0.00in /  0mm 0.0 W/m2
22:37 47.5 °F /  8.6 °C 26.6 °F /  -3 °C 30.42in /  1030hPa Calm   2.0mph /  3.2km/h 44% 0.00in /  0mm 0.0 W/m2
22:43 47.5 °F /  8.6 °C 26.6 °F /  -3 °C 30.42in /  1030hPa Calm     44% 0.00in /  0mm 0.0 W/m2
22:49 47.1 °F /  8.4 °C 26.8 °F /  -2.9 °C 30.42in /  1030hPa Calm     45% 0.00in /  0mm 0.0 W/m2
22:55 46.9 °F /  8.3 °C 26.8 °F /  -2.9 °C 30.42in /  1030hPa Calm     45% 0.00in /  0mm 0.0 W/m2
23:01 46.8 °F /  8.2 °C 26.6 °F /  -3 °C 30.42in /  1030hPa Calm   2.0mph /  3.2km/h 45% 0.00in /  0mm 0.0 W/m2
23:07 46.6 °F /  8.1 °C 27.0 °F /  -2.8 °C 30.42in /  1030hPa Calm   1.0mph /  1.6km/h 46% 0.00in /  0mm 0.0 W/m2
23:13 46.6 °F /  8.1 °C 27.0 °F /  -2.8 °C 30.42in /  1030hPa Calm     46% 0.00in /  0mm 0.0 W/m2
23:20 46.4 °F /  8 °C 26.8 °F /  -2.9 °C 30.42in /  1030hPa Calm   1.0mph /  1.6km/h 46% 0.00in /  0mm 0.0 W/m2
23:25 46.2 °F /  7.9 °C 26.6 °F /  -3 °C 30.42in /  1030hPa Calm   1.0mph /  1.6km/h 46% 0.00in /  0mm 0.0 W/m2
23:31 46.2 °F /  7.9 °C 26.6 °F /  -3 °C 30.42in /  1030hPa Calm   2.0mph /  3.2km/h 46% 0.00in /  0mm 0.0 W/m2
23:37 46.2 °F /  7.9 °C 27.1 °F /  -2.7 °C 30.42in /  1030hPa Calm   1.0mph /  1.6km/h 47% 0.00in /  0mm 0.0 W/m2
23:43 46.0 °F /  7.8 °C 27.0 °F /  -2.8 °C 30.42in /  1030hPa Calm   2.0mph /  3.2km/h 47% 0.00in /  0mm 0.0 W/m2
23:50 46.0 °F /  7.8 °C 27.0 °F /  -2.8 °C 30.42in /  1030hPa Calm   1.0mph /  1.6km/h 47% 0.00in /  0mm 0.0 W/m2
23:55 45.9 °F /  7.7 °C 27.3 °F /  -2.6 °C 30.42in /  1030hPa East 0.9mph /  1.4km/h 1.0mph /  1.6km/h 48% 0.00in /  0mm 0.0 W/m2
Olympia, Windhoek, Namibia
Compliments of Weather Underground - 3 mb